sensor_id;sensor_type;location;lat;lon;timestamp;temperature;humidity
26621;DHT22;14253;44.840;10.444;2023-04-09T00:00:38;10.50;1.00
26621;DHT22;14253;44.840;10.444;2023-04-09T00:03:04;10.50;1.00
26621;DHT22;14253;44.840;10.444;2023-04-09T00:05:30;10.50;1.00
26621;DHT22;14253;44.840;10.444;2023-04-09T00:07:56;10.50;1.00
26621;DHT22;14253;44.840;10.444;2023-04-09T00:10:22;10.50;1.00
26621;DHT22;14253;44.840;10.444;2023-04-09T00:12:48;10.50;1.00
26621;DHT22;14253;44.840;10.444;2023-04-09T00:15:14;10.50;1.00
26621;DHT22;14253;44.840;10.444;2023-04-09T00:17:40;10.50;1.00
26621;DHT22;14253;44.840;10.444;2023-04-09T00:20:06;10.50;1.00
26621;DHT22;14253;44.840;10.444;2023-04-09T00:22:32;10.50;99.90
26621;DHT22;14253;44.840;10.444;2023-04-09T00:24:58;10.50;99.90
26621;DHT22;14253;44.840;10.444;2023-04-09T00:27:24;10.60;99.90
26621;DHT22;14253;44.840;10.444;2023-04-09T00:29:53;10.60;99.90
26621;DHT22;14253;44.840;10.444;2023-04-09T00:32:19;10.50;99.90
26621;DHT22;14253;44.840;10.444;2023-04-09T00:34:45;10.50;99.90
26621;DHT22;14253;44.840;10.444;2023-04-09T00:37:11;10.50;99.90
26621;DHT22;14253;44.840;10.444;2023-04-09T00:39:37;10.50;1.00
26621;DHT22;14253;44.840;10.444;2023-04-09T00:42:03;10.40;1.00
26621;DHT22;14253;44.840;10.444;2023-04-09T00:44:29;10.40;1.00
26621;DHT22;14253;44.840;10.444;2023-04-09T00:46:57;10.40;1.00
26621;DHT22;14253;44.840;10.444;2023-04-09T00:49:24;10.40;1.00
26621;DHT22;14253;44.840;10.444;2023-04-09T00:51:51;10.30;1.00
26621;DHT22;14253;44.840;10.444;2023-04-09T00:54:18;10.30;99.90
26621;DHT22;14253;44.840;10.444;2023-04-09T00:56:44;10.30;1.00
26621;DHT22;14253;44.840;10.444;2023-04-09T00:59:10;10.30;99.90
26621;DHT22;14253;44.840;10.444;2023-04-09T01:01:36;10.30;1.00
26621;DHT22;14253;44.840;10.444;2023-04-09T01:04:02;10.20;1.00
26621;DHT22;14253;44.840;10.444;2023-04-09T01:06:50;10.20;1.00
26621;DHT22;14253;44.840;10.444;2023-04-09T01:09:34;10.10;1.00
26621;DHT22;14253;44.840;10.444;2023-04-09T01:14:56;10.10;1.00
26621;DHT22;14253;44.840;10.444;2023-04-09T01:18:21;10.10;1.00
26621;DHT22;14253;44.840;10.444;2023-04-09T01:20:32;10.00;1.00
26621;DHT22;14253;44.840;10.444;2023-04-09T01:29:16;9.80;1.00
26621;DHT22;14253;44.840;10.444;2023-04-09T01:31:43;9.80;1.00
26621;DHT22;14253;44.840;10.444;2023-04-09T01:34:10;9.70;1.00
26621;DHT22;14253;44.840;10.444;2023-04-09T01:36:38;9.70;1.00
26621;DHT22;14253;44.840;10.444;2023-04-09T01:39:05;9.70;1.00
26621;DHT22;14253;44.840;10.444;2023-04-09T01:41:33;9.60;1.00
26621;DHT22;14253;44.840;10.444;2023-04-09T01:44:01;9.60;1.00
26621;DHT22;14253;44.840;10.444;2023-04-09T01:46:29;9.60;1.00
26621;DHT22;14253;44.840;10.444;2023-04-09T01:48:56;9.60;1.00
26621;DHT22;14253;44.840;10.444;2023-04-09T01:51:22;9.60;1.00
26621;DHT22;14253;44.840;10.444;2023-04-09T01:53:48;9.50;1.00
26621;DHT22;14253;44.840;10.444;2023-04-09T01:56:14;9.50;1.00
26621;DHT22;14253;44.840;10.444;2023-04-09T01:58:40;9.50;1.00
26621;DHT22;14253;44.840;10.444;2023-04-09T02:01:12;9.60;1.00
26621;DHT22;14253;44.840;10.444;2023-04-09T02:03:53;9.60;1.00
26621;DHT22;14253;44.840;10.444;2023-04-09T02:06:43;9.60;1.00
26621;DHT22;14253;44.840;10.444;2023-04-09T02:09:11;9.50;1.00
26621;DHT22;14253;44.840;10.444;2023-04-09T02:11:41;9.50;1.00
26621;DHT22;14253;44.840;10.444;2023-04-09T02:14:08;9.50;1.00
26621;DHT22;14253;44.840;10.444;2023-04-09T02:16:36;9.50;1.00
26621;DHT22;14253;44.840;10.444;2023-04-09T02:19:02;9.60;1.00
26621;DHT22;14253;44.840;10.444;2023-04-09T02:21:28;9.50;1.00
26621;DHT22;14253;44.840;10.444;2023-04-09T02:23:56;9.60;1.00
26621;DHT22;14253;44.840;10.444;2023-04-09T02:26:23;9.60;1.00
26621;DHT22;14253;44.840;10.444;2023-04-09T02:28:49;9.60;1.00
26621;DHT22;14253;44.840;10.444;2023-04-09T02:31:15;9.50;1.00
26621;DHT22;14253;44.840;10.444;2023-04-09T02:33:41;9.50;1.00
26621;DHT22;14253;44.840;10.444;2023-04-09T02:36:10;9.50;1.00
26621;DHT22;14253;44.840;10.444;2023-04-09T02:38:40;9.40;1.00
26621;DHT22;14253;44.840;10.444;2023-04-09T02:41:06;9.40;1.00
26621;DHT22;14253;44.840;10.444;2023-04-09T02:43:32;9.50;1.00
26621;DHT22;14253;44.840;10.444;2023-04-09T02:45:58;9.50;1.00
26621;DHT22;14253;44.840;10.444;2023-04-09T02:48:24;9.50;1.00
26621;DHT22;14253;44.840;10.444;2023-04-09T02:50:50;9.50;1.00
26621;DHT22;14253;44.840;10.444;2023-04-09T02:53:15;9.50;1.00
26621;DHT22;14253;44.840;10.444;2023-04-09T02:55:41;9.50;1.00
26621;DHT22;14253;44.840;10.444;2023-04-09T02:58:07;9.40;1.00
26621;DHT22;14253;44.840;10.444;2023-04-09T03:00:33;9.40;1.00
26621;DHT22;14253;44.840;10.444;2023-04-09T03:02:59;9.40;1.00
26621;DHT22;14253;44.840;10.444;2023-04-09T03:05:25;9.40;1.00
26621;DHT22;14253;44.840;10.444;2023-04-09T03:07:53;9.40;1.00
26621;DHT22;14253;44.840;10.444;2023-04-09T03:10:18;9.40;1.00
26621;DHT22;14253;44.840;10.444;2023-04-09T03:12:44;9.40;1.00
26621;DHT22;14253;44.840;10.444;2023-04-09T03:15:12;9.30;1.00
26621;DHT22;14253;44.840;10.444;2023-04-09T03:17:38;9.30;1.00
26621;DHT22;14253;44.840;10.444;2023-04-09T03:20:06;9.30;1.00
26621;DHT22;14253;44.840;10.444;2023-04-09T03:22:38;9.30;1.00
26621;DHT22;14253;44.840;10.444;2023-04-09T03:25:22;9.40;1.00
26621;DHT22;14253;44.840;10.444;2023-04-09T03:27:51;9.30;1.00
26621;DHT22;14253;44.840;10.444;2023-04-09T03:30:26;9.30;1.00
26621;DHT22;14253;44.840;10.444;2023-04-09T03:32:52;9.30;1.00
26621;DHT22;14253;44.840;10.444;2023-04-09T03:35:20;9.30;1.00
26621;DHT22;14253;44.840;10.444;2023-04-09T03:37:47;9.30;1.00
26621;DHT22;14253;44.840;10.444;2023-04-09T03:40:16;9.20;1.00
26621;DHT22;14253;44.840;10.444;2023-04-09T03:42:43;9.30;1.00
26621;DHT22;14253;44.840;10.444;2023-04-09T03:45:11;9.20;1.00
26621;DHT22;14253;44.840;10.444;2023-04-09T03:47:42;9.20;1.00
26621;DHT22;14253;44.840;10.444;2023-04-09T03:50:09;9.20;1.00
26621;DHT22;14253;44.840;10.444;2023-04-09T03:52:49;9.20;1.00
26621;DHT22;14253;44.840;10.444;2023-04-09T03:55:15;9.20;1.00
26621;DHT22;14253;44.840;10.444;2023-04-09T03:57:41;9.20;1.00
26621;DHT22;14253;44.840;10.444;2023-04-09T04:00:12;9.10;1.00
26621;DHT22;14253;44.840;10.444;2023-04-09T04:02:50;9.10;1.00
26621;DHT22;14253;44.840;10.444;2023-04-09T04:05:24;9.10;1.00
26621;DHT22;14253;44.840;10.444;2023-04-09T04:07:52;9.00;1.00
26621;DHT22;14253;44.840;10.444;2023-04-09T04:10:25;9.00;1.00
26621;DHT22;14253;44.840;10.444;2023-04-09T04:12:51;9.00;1.00
26621;DHT22;14253;44.840;10.444;2023-04-09T04:15:46;9.00;1.00
26621;DHT22;14253;44.840;10.444;2023-04-09T04:18:14;8.90;1.00
26621;DHT22;14253;44.840;10.444;2023-04-09T04:20:44;8.90;1.00
26621;DHT22;14253;44.840;10.444;2023-04-09T04:23:12;8.90;1.00
26621;DHT22;14253;44.840;10.444;2023-04-09T04:25:51;8.80;1.00
26621;DHT22;14253;44.840;10.444;2023-04-09T04:28:27;8.80;1.00
26621;DHT22;14253;44.840;10.444;2023-04-09T04:30:54;8.70;1.00
26621;DHT22;14253;44.840;10.444;2023-04-09T04:33:20;8.70;1.00
26621;DHT22;14253;44.840;10.444;2023-04-09T04:36:06;8.60;1.00
26621;DHT22;14253;44.840;10.444;2023-04-09T04:38:38;8.60;1.00
26621;DHT22;14253;44.840;10.444;2023-04-09T04:41:10;8.60;1.00
26621;DHT22;14253;44.840;10.444;2023-04-09T04:43:40;8.60;1.00
26621;DHT22;14253;44.840;10.444;2023-04-09T04:46:07;8.50;1.00
26621;DHT22;14253;44.840;10.444;2023-04-09T04:48:33;8.50;1.00
26621;DHT22;14253;44.840;10.444;2023-04-09T04:51:00;8.50;1.00
26621;DHT22;14253;44.840;10.444;2023-04-09T04:53:33;8.60;1.00
26621;DHT22;14253;44.840;10.444;2023-04-09T04:56:14;8.50;1.00
26621;DHT22;14253;44.840;10.444;2023-04-09T04:58:52;8.50;1.00
26621;DHT22;14253;44.840;10.444;2023-04-09T05:01:20;8.40;1.00
26621;DHT22;14253;44.840;10.444;2023-04-09T05:03:47;8.40;1.00
26621;DHT22;14253;44.840;10.444;2023-04-09T05:06:29;8.40;1.00
26621;DHT22;14253;44.840;10.444;2023-04-09T05:08:58;8.50;1.00
26621;DHT22;14253;44.840;10.444;2023-04-09T05:11:26;8.40;1.00
26621;DHT22;14253;44.840;10.444;2023-04-09T05:13:53;8.30;1.00
26621;DHT22;14253;44.840;10.444;2023-04-09T05:16:20;8.30;1.00
26621;DHT22;14253;44.840;10.444;2023-04-09T05:18:53;8.20;1.00
26621;DHT22;14253;44.840;10.444;2023-04-09T05:21:19;8.20;1.00
26621;DHT22;14253;44.840;10.444;2023-04-09T05:23:46;8.10;1.00
26621;DHT22;14253;44.840;10.444;2023-04-09T05:26:14;8.10;1.00
26621;DHT22;14253;44.840;10.444;2023-04-09T05:28:47;8.10;1.00
26621;DHT22;14253;44.840;10.444;2023-04-09T05:31:17;8.00;1.00
26621;DHT22;14253;44.840;10.444;2023-04-09T05:33:51;8.00;1.00
26621;DHT22;14253;44.840;10.444;2023-04-09T05:36:22;8.00;1.00
26621;DHT22;14253;44.840;10.444;2023-04-09T05:38:48;8.10;1.00
26621;DHT22;14253;44.840;10.444;2023-04-09T05:41:14;8.20;1.00
26621;DHT22;14253;44.840;10.444;2023-04-09T05:43:52;8.20;1.00
26621;DHT22;14253;44.840;10.444;2023-04-09T05:46:19;8.20;1.00
26621;DHT22;14253;44.840;10.444;2023-04-09T05:48:45;8.20;1.00
26621;DHT22;14253;44.840;10.444;2023-04-09T05:51:11;8.20;1.00
26621;DHT22;14253;44.840;10.444;2023-04-09T05:53:37;8.20;1.00
26621;DHT22;14253;44.840;10.444;2023-04-09T05:56:14;8.20;1.00
26621;DHT22;14253;44.840;10.444;2023-04-09T05:58:48;8.20;1.00
26621;DHT22;14253;44.840;10.444;2023-04-09T06:01:14;8.30;1.00
26621;DHT22;14253;44.840;10.444;2023-04-09T06:03:40;8.40;1.00
26621;DHT22;14253;44.840;10.444;2023-04-09T06:06:06;8.60;1.00
26621;DHT22;14253;44.840;10.444;2023-04-09T06:08:33;8.90;1.00
26621;DHT22;14253;44.840;10.444;2023-04-09T06:10:59;9.30;1.00
26621;DHT22;14253;44.840;10.444;2023-04-09T06:13:25;9.70;99.90
26621;DHT22;14253;44.840;10.444;2023-04-09T06:15:50;10.10;99.90
26621;DHT22;14253;44.840;10.444;2023-04-09T06:18:16;10.50;99.90
26621;DHT22;14253;44.840;10.444;2023-04-09T06:20:42;11.00;99.90
26621;DHT22;14253;44.840;10.444;2023-04-09T06:23:08;11.30;99.90
26621;DHT22;14253;44.840;10.444;2023-04-09T06:25:35;11.60;99.90
26621;DHT22;14253;44.840;10.444;2023-04-09T06:28:01;11.80;99.90
26621;DHT22;14253;44.840;10.444;2023-04-09T06:30:28;12.10;99.90
26621;DHT22;14253;44.840;10.444;2023-04-09T06:32:54;12.40;99.90
26621;DHT22;14253;44.840;10.444;2023-04-09T06:35:20;12.50;99.90
26621;DHT22;14253;44.840;10.444;2023-04-09T06:37:46;12.70;99.90
26621;DHT22;14253;44.840;10.444;2023-04-09T06:40:12;12.60;99.90
26621;DHT22;14253;44.840;10.444;2023-04-09T06:42:44;12.10;99.90
26621;DHT22;14253;44.840;10.444;2023-04-09T06:45:25;11.70;99.90
26621;DHT22;14253;44.840;10.444;2023-04-09T06:47:52;11.50;99.90
26621;DHT22;14253;44.840;10.444;2023-04-09T06:50:17;11.30;99.90
26621;DHT22;14253;44.840;10.444;2023-04-09T06:52:43;11.20;99.90
26621;DHT22;14253;44.840;10.444;2023-04-09T06:55:10;11.10;99.90
26621;DHT22;14253;44.840;10.444;2023-04-09T06:57:36;11.30;99.90
26621;DHT22;14253;44.840;10.444;2023-04-09T07:00:03;11.60;99.90
26621;DHT22;14253;44.840;10.444;2023-04-09T07:02:29;12.10;99.90
26621;DHT22;14253;44.840;10.444;2023-04-09T07:04:55;12.60;99.90
26621;DHT22;14253;44.840;10.444;2023-04-09T07:07:21;13.10;99.90
26621;DHT22;14253;44.840;10.444;2023-04-09T07:09:51;13.60;99.90
26621;DHT22;14253;44.840;10.444;2023-04-09T07:12:31;13.90;99.90
26621;DHT22;14253;44.840;10.444;2023-04-09T07:15:02;14.10;99.90
26621;DHT22;14253;44.840;10.444;2023-04-09T07:17:29;14.40;99.90
26621;DHT22;14253;44.840;10.444;2023-04-09T07:19:55;14.60;99.90
26621;DHT22;14253;44.840;10.444;2023-04-09T07:22:21;14.30;99.90
26621;DHT22;14253;44.840;10.444;2023-04-09T07:24:48;14.50;99.90
26621;DHT22;14253;44.840;10.444;2023-04-09T07:27:24;14.80;99.90
26621;DHT22;14253;44.840;10.444;2023-04-09T07:29:52;14.90;99.90
26621;DHT22;14253;44.840;10.444;2023-04-09T07:32:18;15.00;99.90
26621;DHT22;14253;44.840;10.444;2023-04-09T07:34:45;15.00;99.90
26621;DHT22;14253;44.840;10.444;2023-04-09T07:37:11;14.80;99.90
26621;DHT22;14253;44.840;10.444;2023-04-09T07:39:37;15.00;99.90
26621;DHT22;14253;44.840;10.444;2023-04-09T07:42:04;14.90;99.90
26621;DHT22;14253;44.840;10.444;2023-04-09T07:44:34;15.10;99.90
26621;DHT22;14253;44.840;10.444;2023-04-09T07:47:06;15.50;99.90
26621;DHT22;14253;44.840;10.444;2023-04-09T07:49:32;15.60;99.90
26621;DHT22;14253;44.840;10.444;2023-04-09T07:52:00;15.20;99.90
26621;DHT22;14253;44.840;10.444;2023-04-09T07:54:26;15.20;99.90
26621;DHT22;14253;44.840;10.444;2023-04-09T07:56:53;15.30;99.90
26621;DHT22;14253;44.840;10.444;2023-04-09T07:59:19;15.40;99.90
26621;DHT22;14253;44.840;10.444;2023-04-09T08:01:45;15.50;99.90
26621;DHT22;14253;44.840;10.444;2023-04-09T08:04:11;15.60;99.90
26621;DHT22;14253;44.840;10.444;2023-04-09T08:06:37;15.40;99.90
26621;DHT22;14253;44.840;10.444;2023-04-09T08:09:03;15.40;99.90
26621;DHT22;14253;44.840;10.444;2023-04-09T08:11:29;15.70;99.90
26621;DHT22;14253;44.840;10.444;2023-04-09T08:13:55;15.90;99.90
26621;DHT22;14253;44.840;10.444;2023-04-09T08:16:27;16.10;99.90
26621;DHT22;14253;44.840;10.444;2023-04-09T08:18:55;16.10;99.90
26621;DHT22;14253;44.840;10.444;2023-04-09T08:21:22;16.30;99.90
26621;DHT22;14253;44.840;10.444;2023-04-09T08:23:47;16.40;99.90
26621;DHT22;14253;44.840;10.444;2023-04-09T08:26:13;16.60;99.90
26621;DHT22;14253;44.840;10.444;2023-04-09T08:28:39;16.60;99.90
26621;DHT22;14253;44.840;10.444;2023-04-09T08:31:08;16.60;99.90
26621;DHT22;14253;44.840;10.444;2023-04-09T08:33:34;16.70;99.90
26621;DHT22;14253;44.840;10.444;2023-04-09T08:36:00;16.50;99.90
26621;DHT22;14253;44.840;10.444;2023-04-09T08:38:25;16.20;99.90
26621;DHT22;14253;44.840;10.444;2023-04-09T08:40:51;16.20;99.90
26621;DHT22;14253;44.840;10.444;2023-04-09T08:43:18;16.00;99.90
26621;DHT22;14253;44.840;10.444;2023-04-09T08:45:47;16.30;99.90
26621;DHT22;14253;44.840;10.444;2023-04-09T08:48:13;16.30;99.90
26621;DHT22;14253;44.840;10.444;2023-04-09T08:50:40;16.60;99.90
26621;DHT22;14253;44.840;10.444;2023-04-09T08:53:07;16.80;99.90
26621;DHT22;14253;44.840;10.444;2023-04-09T08:55:34;17.10;99.90
26621;DHT22;14253;44.840;10.444;2023-04-09T08:58:05;17.30;99.90
26621;DHT22;14253;44.840;10.444;2023-04-09T09:00:36;17.40;99.90
26621;DHT22;14253;44.840;10.444;2023-04-09T09:03:07;17.50;99.90
26621;DHT22;14253;44.840;10.444;2023-04-09T09:05:39;17.60;99.90
26621;DHT22;14253;44.840;10.444;2023-04-09T09:08:10;17.70;99.90
26621;DHT22;14253;44.840;10.444;2023-04-09T09:10:44;17.80;99.90
26621;DHT22;14253;44.840;10.444;2023-04-09T09:13:26;18.10;99.90
26621;DHT22;14253;44.840;10.444;2023-04-09T09:15:54;18.30;99.90
26621;DHT22;14253;44.840;10.444;2023-04-09T09:18:42;18.50;99.90
26621;DHT22;14253;44.840;10.444;2023-04-09T09:21:13;18.40;99.90
26621;DHT22;14253;44.840;10.444;2023-04-09T09:23:39;17.70;99.90
26621;DHT22;14253;44.840;10.444;2023-04-09T09:26:14;17.60;99.90
26621;DHT22;14253;44.840;10.444;2023-04-09T09:28:41;17.30;99.90
26621;DHT22;14253;44.840;10.444;2023-04-09T09:31:11;17.00;99.90
26621;DHT22;14253;44.840;10.444;2023-04-09T09:33:38;17.00;99.90
26621;DHT22;14253;44.840;10.444;2023-04-09T09:36:07;17.10;99.90
26621;DHT22;14253;44.840;10.444;2023-04-09T09:38:53;17.60;99.90
26621;DHT22;14253;44.840;10.444;2023-04-09T09:41:19;17.40;99.90
26621;DHT22;14253;44.840;10.444;2023-04-09T09:43:45;17.40;99.90
26621;DHT22;14253;44.840;10.444;2023-04-09T09:46:12;17.10;99.90
26621;DHT22;14253;44.840;10.444;2023-04-09T09:48:38;17.10;99.90
26621;DHT22;14253;44.840;10.444;2023-04-09T09:51:10;16.90;99.90
26621;DHT22;14253;44.840;10.444;2023-04-09T09:53:37;16.80;99.90
26621;DHT22;14253;44.840;10.444;2023-04-09T09:56:05;17.10;99.90
26621;DHT22;14253;44.840;10.444;2023-04-09T09:58:36;17.10;99.90
26621;DHT22;14253;44.840;10.444;2023-04-09T10:01:07;17.10;99.90
26621;DHT22;14253;44.840;10.444;2023-04-09T10:03:36;17.40;99.90
26621;DHT22;14253;44.840;10.444;2023-04-09T10:06:05;17.90;99.90
26621;DHT22;14253;44.840;10.444;2023-04-09T10:08:32;18.30;99.90
26621;DHT22;14253;44.840;10.444;2023-04-09T10:11:00;18.40;99.90
26621;DHT22;14253;44.840;10.444;2023-04-09T10:13:32;18.00;99.90
26621;DHT22;14253;44.840;10.444;2023-04-09T10:15:59;18.10;99.90
26621;DHT22;14253;44.840;10.444;2023-04-09T10:18:27;18.10;99.90
26621;DHT22;14253;44.840;10.444;2023-04-09T10:20:59;17.80;99.90
26621;DHT22;14253;44.840;10.444;2023-04-09T10:23:38;17.70;99.90
26621;DHT22;14253;44.840;10.444;2023-04-09T10:26:05;17.70;99.90
26621;DHT22;14253;44.840;10.444;2023-04-09T10:28:31;17.40;99.90
26621;DHT22;14253;44.840;10.444;2023-04-09T10:30:59;17.40;99.90
26621;DHT22;14253;44.840;10.444;2023-04-09T10:33:26;17.70;99.90
26621;DHT22;14253;44.840;10.444;2023-04-09T10:35:55;18.20;99.90
26621;DHT22;14253;44.840;10.444;2023-04-09T10:38:44;18.50;99.90
26621;DHT22;14253;44.840;10.444;2023-04-09T10:41:35;18.40;99.90
26621;DHT22;14253;44.840;10.444;2023-04-09T10:44:05;18.40;99.90
26621;DHT22;14253;44.840;10.444;2023-04-09T10:46:34;18.80;99.90
26621;DHT22;14253;44.840;10.444;2023-04-09T10:49:18;19.10;99.90
26621;DHT22;14253;44.840;10.444;2023-04-09T10:52:03;19.10;99.90
26621;DHT22;14253;44.840;10.444;2023-04-09T10:59:34;19.50;99.90
26621;DHT22;14253;44.840;10.444;2023-04-09T11:02:01;19.30;99.90
26621;DHT22;14253;44.840;10.444;2023-04-09T11:07:22;18.70;99.90
26621;DHT22;14253;44.840;10.444;2023-04-09T11:09:48;19.00;99.90
26621;DHT22;14253;44.840;10.444;2023-04-09T11:12:14;19.00;99.90
26621;DHT22;14253;44.840;10.444;2023-04-09T11:14:40;19.10;99.90
26621;DHT22;14253;44.840;10.444;2023-04-09T11:17:06;19.20;99.90
26621;DHT22;14253;44.840;10.444;2023-04-09T11:19:35;19.40;99.90
26621;DHT22;14253;44.840;10.444;2023-04-09T11:22:03;19.60;99.90
26621;DHT22;14253;44.840;10.444;2023-04-09T11:24:44;19.70;99.90
26621;DHT22;14253;44.840;10.444;2023-04-09T11:27:11;19.50;99.90
26621;DHT22;14253;44.840;10.444;2023-04-09T11:29:37;19.50;99.90
26621;DHT22;14253;44.840;10.444;2023-04-09T11:32:04;19.30;99.90
26621;DHT22;14253;44.840;10.444;2023-04-09T11:34:30;19.10;99.90
26621;DHT22;14253;44.840;10.444;2023-04-09T11:36:56;19.20;99.90
26621;DHT22;14253;44.840;10.444;2023-04-09T11:39:27;19.10;99.90
26621;DHT22;14253;44.840;10.444;2023-04-09T11:41:53;19.00;99.90
26621;DHT22;14253;44.840;10.444;2023-04-09T11:44:22;18.70;99.90
26621;DHT22;14253;44.840;10.444;2023-04-09T11:46:48;18.70;99.90
26621;DHT22;14253;44.840;10.444;2023-04-09T11:49:15;18.90;99.90
26621;DHT22;14253;44.840;10.444;2023-04-09T11:51:42;19.20;99.90
26621;DHT22;14253;44.840;10.444;2023-04-09T11:54:08;19.20;99.90
26621;DHT22;14253;44.840;10.444;2023-04-09T11:56:36;19.10;99.90
26621;DHT22;14253;44.840;10.444;2023-04-09T11:59:03;19.00;99.90
26621;DHT22;14253;44.840;10.444;2023-04-09T12:01:32;19.00;99.90
26621;DHT22;14253;44.840;10.444;2023-04-09T12:03:59;19.20;99.90
26621;DHT22;14253;44.840;10.444;2023-04-09T12:06:26;19.50;99.90
26621;DHT22;14253;44.840;10.444;2023-04-09T12:08:57;19.70;99.90
26621;DHT22;14253;44.840;10.444;2023-04-09T12:11:28;19.60;99.90
26621;DHT22;14253;44.840;10.444;2023-04-09T12:13:58;19.80;99.90
26621;DHT22;14253;44.840;10.444;2023-04-09T12:16:24;19.60;99.90
26621;DHT22;14253;44.840;10.444;2023-04-09T12:18:50;19.10;99.90
26621;DHT22;14253;44.840;10.444;2023-04-09T12:21:23;18.90;99.90
26621;DHT22;14253;44.840;10.444;2023-04-09T12:23:52;19.00;99.90
26621;DHT22;14253;44.840;10.444;2023-04-09T12:26:18;19.40;99.90
26621;DHT22;14253;44.840;10.444;2023-04-09T12:28:44;19.00;99.90
26621;DHT22;14253;44.840;10.444;2023-04-09T12:31:10;19.10;99.90
26621;DHT22;14253;44.840;10.444;2023-04-09T12:33:36;18.90;99.90
26621;DHT22;14253;44.840;10.444;2023-04-09T12:36:03;18.90;99.90
26621;DHT22;14253;44.840;10.444;2023-04-09T12:38:29;19.00;99.90
26621;DHT22;14253;44.840;10.444;2023-04-09T12:40:55;18.90;99.90
26621;DHT22;14253;44.840;10.444;2023-04-09T12:43:21;19.00;99.90
26621;DHT22;14253;44.840;10.444;2023-04-09T12:45:47;19.00;99.90
26621;DHT22;14253;44.840;10.444;2023-04-09T12:48:14;19.00;99.90
26621;DHT22;14253;44.840;10.444;2023-04-09T12:50:40;19.20;99.90
26621;DHT22;14253;44.840;10.444;2023-04-09T12:53:07;19.10;99.90
26621;DHT22;14253;44.840;10.444;2023-04-09T12:55:35;19.10;99.90
26621;DHT22;14253;44.840;10.444;2023-04-09T12:58:01;19.30;99.90
26621;DHT22;14253;44.840;10.444;2023-04-09T13:00:27;19.10;99.90
26621;DHT22;14253;44.840;10.444;2023-04-09T13:02:55;19.10;99.90
26621;DHT22;14253;44.840;10.444;2023-04-09T13:05:21;19.10;99.90
26621;DHT22;14253;44.840;10.444;2023-04-09T13:07:47;19.40;99.90
26621;DHT22;14253;44.840;10.444;2023-04-09T13:10:13;19.30;99.90
26621;DHT22;14253;44.840;10.444;2023-04-09T13:12:39;19.40;99.90
26621;DHT22;14253;44.840;10.444;2023-04-09T13:15:05;19.60;99.90
26621;DHT22;14253;44.840;10.444;2023-04-09T13:17:31;19.80;99.90
26621;DHT22;14253;44.840;10.444;2023-04-09T13:19:57;20.00;99.90
26621;DHT22;14253;44.840;10.444;2023-04-09T13:22:23;19.90;99.90
26621;DHT22;14253;44.840;10.444;2023-04-09T13:24:49;20.00;99.90
26621;DHT22;14253;44.840;10.444;2023-04-09T13:27:15;19.70;99.90
26621;DHT22;14253;44.840;10.444;2023-04-09T13:29:41;19.60;99.90
26621;DHT22;14253;44.840;10.444;2023-04-09T13:32:07;19.80;99.90
26621;DHT22;14253;44.840;10.444;2023-04-09T13:34:37;19.90;99.90
26621;DHT22;14253;44.840;10.444;2023-04-09T13:37:03;19.70;99.90
26621;DHT22;14253;44.840;10.444;2023-04-09T13:39:29;19.90;99.90
26621;DHT22;14253;44.840;10.444;2023-04-09T13:41:55;20.30;99.90
26621;DHT22;14253;44.840;10.444;2023-04-09T13:44:22;20.50;99.90
26621;DHT22;14253;44.840;10.444;2023-04-09T13:46:48;20.60;99.90
26621;DHT22;14253;44.840;10.444;2023-04-09T13:49:14;20.60;99.90
26621;DHT22;14253;44.840;10.444;2023-04-09T13:51:41;20.70;99.90
26621;DHT22;14253;44.840;10.444;2023-04-09T13:54:06;20.60;99.90
26621;DHT22;14253;44.840;10.444;2023-04-09T13:56:33;20.30;99.90
26621;DHT22;14253;44.840;10.444;2023-04-09T13:58:59;20.10;99.90
26621;DHT22;14253;44.840;10.444;2023-04-09T14:01:25;20.10;99.90
26621;DHT22;14253;44.840;10.444;2023-04-09T14:03:52;20.10;99.90
26621;DHT22;14253;44.840;10.444;2023-04-09T14:06:18;20.40;99.90
26621;DHT22;14253;44.840;10.444;2023-04-09T14:08:44;20.50;99.90
26621;DHT22;14253;44.840;10.444;2023-04-09T14:11:10;20.80;99.90
26621;DHT22;14253;44.840;10.444;2023-04-09T14:13:39;20.80;99.90
26621;DHT22;14253;44.840;10.444;2023-04-09T14:16:06;20.50;99.90
26621;DHT22;14253;44.840;10.444;2023-04-09T14:18:32;20.00;99.90
26621;DHT22;14253;44.840;10.444;2023-04-09T14:20:58;19.80;99.90
26621;DHT22;14253;44.840;10.444;2023-04-09T14:23:25;20.10;99.90
26621;DHT22;14253;44.840;10.444;2023-04-09T14:25:51;20.20;99.90
26621;DHT22;14253;44.840;10.444;2023-04-09T14:28:18;20.50;99.90
26621;DHT22;14253;44.840;10.444;2023-04-09T14:30:44;20.50;99.90
26621;DHT22;14253;44.840;10.444;2023-04-09T14:33:10;20.80;99.90
26621;DHT22;14253;44.840;10.444;2023-04-09T14:35:36;20.80;99.90
26621;DHT22;14253;44.840;10.444;2023-04-09T14:38:01;20.80;99.90
26621;DHT22;14253;44.840;10.444;2023-04-09T14:40:30;20.70;99.90
26621;DHT22;14253;44.840;10.444;2023-04-09T14:42:57;20.80;99.90
26621;DHT22;14253;44.840;10.444;2023-04-09T14:45:23;20.80;99.90
26621;DHT22;14253;44.840;10.444;2023-04-09T14:47:49;20.50;99.90
26621;DHT22;14253;44.840;10.444;2023-04-09T14:50:15;20.50;99.90
26621;DHT22;14253;44.840;10.444;2023-04-09T14:52:44;20.50;99.90
26621;DHT22;14253;44.840;10.444;2023-04-09T14:55:10;20.40;99.90
26621;DHT22;14253;44.840;10.444;2023-04-09T14:57:39;20.50;99.90
26621;DHT22;14253;44.840;10.444;2023-04-09T15:00:10;20.80;99.90
26621;DHT22;14253;44.840;10.444;2023-04-09T15:02:36;21.00;99.90
26621;DHT22;14253;44.840;10.444;2023-04-09T15:05:09;20.90;99.90
26621;DHT22;14253;44.840;10.444;2023-04-09T15:07:35;20.80;99.90
26621;DHT22;14253;44.840;10.444;2023-04-09T15:10:02;20.50;99.90
26621;DHT22;14253;44.840;10.444;2023-04-09T15:12:31;20.40;99.90
26621;DHT22;14253;44.840;10.444;2023-04-09T15:14:58;20.50;99.90
26621;DHT22;14253;44.840;10.444;2023-04-09T15:17:25;20.70;99.90
26621;DHT22;14253;44.840;10.444;2023-04-09T15:19:55;20.50;99.90
26621;DHT22;14253;44.840;10.444;2023-04-09T15:22:24;20.80;99.90
26621;DHT22;14253;44.840;10.444;2023-04-09T15:24:50;21.20;99.90
26621;DHT22;14253;44.840;10.444;2023-04-09T15:27:16;21.80;99.90
26621;DHT22;14253;44.840;10.444;2023-04-09T15:29:42;22.10;99.90
26621;DHT22;14253;44.840;10.444;2023-04-09T15:32:08;22.10;99.90
26621;DHT22;14253;44.840;10.444;2023-04-09T15:34:35;22.20;99.90
26621;DHT22;14253;44.840;10.444;2023-04-09T15:37:01;22.20;99.90
26621;DHT22;14253;44.840;10.444;2023-04-09T15:39:27;21.90;99.90
26621;DHT22;14253;44.840;10.444;2023-04-09T15:41:54;22.00;99.90
26621;DHT22;14253;44.840;10.444;2023-04-09T15:44:23;21.90;99.90
26621;DHT22;14253;44.840;10.444;2023-04-09T15:46:49;21.80;99.90
26621;DHT22;14253;44.840;10.444;2023-04-09T15:49:16;21.80;99.90